Sasa Sergej

Recruteur en chef - Vojvodina
21 Oct 2027
Jeudi
Processus

Personnalité

Adaptabilité (4) Ambition (15) Controverse (15) Loyauté (18) Pression (9) Professionnalisme (11) Sportivité (14) Tempérament (8)

Profil

Style d'entraînement Démocratique
Diplôme National B
Détermination 4
Gestion des joueurs 7
Motivation 11
Discipline 6
Satisfaction professionnelle
100%
Fatigue
0%
Rôle Recruteur en chef
Salaire 79.8K p/s
Contrat 14.03.2028

Performance

Comportement Bon
Efficacité de l'entraînement
34%
Développement des joueurs
40%
Prévention des blessures
25%
Mise en place tactique
30%

Événements récents

A participé à une réunion de recrutement maintenant
A participé à une réunion de recrutement maintenant
A participé à une réunion de recrutement maintenant
A participé à une réunion de recrutement 7j
A participé à une réunion de recrutement 7j
A participé à une réunion de recrutement 7j
A recommandé une cible de transfert 7j
A recommandé une cible de transfert 7j

Suivi en cours

169
Joueur Club Statut Capacité Confiance Observé Dernière observation Dernier vote
Vasilije Novičić IMT Rapport prêt 104 / 105 79% 1 28.06.2027 -
Bradley Phiri LNZ Actif 112 / 112 66% 1 01.06.2027 Approuver
Juan Bezerra BK Hacken Négociation 117 / 121 66% 1 01.06.2027 -
Razvan Mitrita San Diego Football Club Actif 118 / 120 66% 1 01.06.2027 Approuver
Demba Seck Partizan Rapport prêt 118 / 119 66% 1 01.06.2027 -
Shota Shekiladze Akhmat Grozny Rapport prêt 110 / 110 66% 1 01.06.2027 -
Christos Mouzakitis Hull City Actif 130 / 141 40% 2 31.05.2027 -
Fuzy Taylor Medeama Actif 80 / 70 40% 1 31.05.2027 -
Andre Brooks Sheffield United Actif 132 / 125 40% 2 30.05.2027 -
David Turnbull Cardiff City Actif 123 / 121 40% 1 30.05.2027 -
Ilyas Ansah Hull City Actif 140 / 118 40% 1 30.05.2027 -
Richard Koné Queens Park Rangers Actif 120 / 112 40% 3 29.05.2027 -
Chem Campbell Stevenage Actif 116 / 121 40% 1 29.05.2027 -
Jack McGlynn Stoke City Actif 126 / 126 40% 1 29.05.2027 -
Million Manhoef Stoke City Actif 135 / 120 40% 2 28.05.2027 -
Dylan Levitt Leyton Orient Actif 116 / 106 40% 1 28.05.2027 -
Ethan Galbraith Swansea City Actif 137 / 129 40% 1 27.05.2027 -
Brian De Keersmaecker Oxford United Actif 125 / 129 40% 1 27.05.2027 -
Paddy Lane Reading Actif 114 / 96 40% 2 23.05.2027 -
Jason Knight Bristol City Actif 135 / 122 40% 1 23.05.2027 -
Welington Southampton Actif 128 / 147 40% 1 22.05.2027 -
Harry Leonard Peterborough United Actif 105 / 123 40% 1 22.05.2027 -
Stanley Mills Oxford United Actif 119 / 127 40% 1 22.05.2027 -
Alex Lowry Wycombe Wanderers Actif 117 / 136 40% 3 21.05.2027 -
Tyrese Campbell Sheffield United Actif 136 / 134 40% 3 20.05.2027 -
Daniel Kyerewaa Reading Actif 120 / 104 40% 2 20.05.2027 -
Tomáš Rigo Stoke City Actif 131 / 144 40% 1 20.05.2027 -
Harry Clarke Preston Actif 126 / 126 40% 2 18.05.2027 -
Finn Azaz Southampton Actif 136 / 114 40% 1 18.05.2027 -
Jacques Ekomié Wrexham Actif 137 / 145 40% 6 17.05.2027 -
Isaiah Jones Luton Town Actif 123 / 123 40% 1 17.05.2027 -
Scott Twine Bristol City Actif 123 / 115 40% 3 15.05.2027 -
Georgie Gent Barnsley Actif 105 / 98 40% 4 13.05.2027 -
Sonny Carey Charlton Athletic Actif 117 / 126 40% 2 13.05.2027 -
Darlin Yongwa Norwich City Actif 119 / 135 40% 4 12.05.2027 -
Ali Ahmed Norwich City Actif 128 / 113 40% 1 12.05.2027 -
Eom Ji-Sung Swansea City Actif 120 / 133 40% 1 12.05.2027 -
Othmane Maamma Watford Actif 133 / 121 40% 3 11.05.2027 -
Derensili Sanches Fernandes Huddersfield Town Actif 123 / 132 40% 3 11.05.2027 -
Ethan Williams Peterborough United Actif 120 / 135 40% 2 10.05.2027 -
Paris Maghoma Norwich City Actif 128 / 136 40% 1 09.05.2027 -
Ar'jany Martha Rotherham United Actif 104 / 115 40% 1 09.05.2027 -
Cian Ashford Cardiff City Actif 118 / 110 40% 1 08.05.2027 -
Phoenix Patterson Stevenage Actif 105 / 120 40% 1 08.05.2027 -
Milan van Ewijk Mansfield Town Actif 135 / 129 40% 3 05.05.2027 -
Kane Wilson Milton Keynes Dons Actif 116 / 105 40% 4 05.05.2027 -
Josh Edwards Charlton Athletic Actif 118 / 128 40% 4 04.05.2027 -
Femi Seriki Sheffield United Actif 135 / 131 40% 3 04.05.2027 -
Jack Currie Oxford United Actif 118 / 139 40% 5 03.05.2027 -
Callum Doyle Wrexham Actif 128 / 132 40% 3 02.05.2027 -
Nathan Moriah-Welsh Mansfield Town Actif 111 / 112 40% 4 02.05.2027 -
Ethan Pye Stockport County Actif 118 / 103 40% 3 02.05.2027 -
Andrea Carboni Monza Actif 125 / 131 40% 4 29.04.2027 -
Idris El Mizouni Leyton Orient Actif 122 / 113 40% 1 28.04.2027 -
Kellen Fisher Norwich City Actif 127 / 127 40% 2 27.04.2027 -
Andrei Coubiş Lincoln City Actif 114 / 132 40% 1 26.04.2027 -
Daniel Tonoli Modena Actif 123 / 114 40% 1 26.04.2027 -
Justin Devenny Stoke City Actif 120 / 109 40% 1 26.04.2027 -
Williams Manyama SuperSport United Actif 116 / 101 40% 10 25.04.2027 -
Will Fish Cardiff City Actif 119 / 110 40% 6 25.04.2027 -
Juan Mosquera Sheffield Wednesday Actif 126 / 116 40% 4 24.04.2027 -
Nobel Mendy Hull City Actif 133 / 153 40% 3 24.04.2027 -
Teden Mengi Luton Town Actif 118 / 112 40% 4 19.04.2027 -
Derry Murkin Derby County Actif 122 / 118 40% 2 19.04.2027 -
Di'Shon Bernard Sheffield Wednesday Actif 118 / 121 40% 3 17.04.2027 -
Samuele Angori Pisa Actif 133 / 126 40% 1 17.04.2027 -
Kristoffer Lund Birmingham Actif 128 / 132 40% 2 16.04.2027 -
Zak Swanson Bradford City Actif 113 / 116 40% 2 16.04.2027 -
Mirko Topić Norwich City Actif 127 / 115 40% 1 15.04.2027 -
Bali Mumba Huddersfield Town Actif 108 / 126 40% 1 14.04.2027 -
Mandla Erasmus SuperSport United Actif 114 / 110 40% 8 11.04.2027 -
Leif Davis Ipswich Town Actif 145 / 151 40% 2 11.04.2027 -
Tomás Ribeiro Cultural Leonesa Actif 113 / 123 40% 3 10.04.2027 -
Caolan Boyd-Munce Wycombe Wanderers Actif 123 / 108 40% 2 08.04.2027 -
Harvey White Stevenage Actif 111 / 110 40% 2 06.04.2027 -
Guillem Molina Huesca Actif 111 / 126 40% 2 06.04.2027 -
Andre Dozzell Doncaster Rovers Actif 111 / 130 40% 1 01.04.2027 -
Nicolas Madsen Queens Park Rangers Actif 125 / 147 40% 2 30.03.2027 -
Luke McNally Bristol City Actif 132 / 144 40% 1 29.03.2027 -
Josh Tymon Swansea City Actif 125 / 130 40% 2 28.03.2027 -
Thalente Mbatha Orlando Pirates Actif 114 / 136 40% 3 27.03.2027 -
Lukáš Červ Viktoria Plzen Actif 131 / 130 40% 2 26.03.2027 -
Dennis Cirkin Queens Park Rangers Actif 132 / 143 40% 3 25.03.2027 -
Thomas Waddingham Portsmouth Actif 100 / 118 40% 1 25.03.2027 -
Daniel Awuni Aduana Stars Actif 87 / 75 40% 1 25.03.2027 -
Adam Randell Bristol City Actif 135 / 130 40% 2 24.03.2027 -
Rocco Vata Watford Actif 126 / 109 40% 2 21.03.2027 -
David Ozoh Derby County Actif 117 / 136 40% 1 21.03.2027 -
Caleb Yirenkyi Coventry City Actif 130 / 124 40% 2 16.03.2027 -
Kutlwano Letlhaku Ajax Cape Town Actif 108 / 107 40% 1 16.03.2027 -
Jon Eceizabarrena Real Sociedad Actif 91 / 116 40% 1 13.03.2027 -
Joel McGregor Swindon Town Actif 87 / 108 40% 1 13.03.2027 -
André Miranda Porto Actif 98 / 91 40% 1 11.03.2027 -
Matías Gómez Granada Actif 105 / 123 40% 1 11.03.2027 -
Isaac Kyereh Liberty Professionals Actif 114 / 110 40% 1 09.03.2027 -
Bobby Thomas Coventry City Actif 127 / 123 40% 3 08.03.2027 -
Ryan Alebiosu Blackburn Rovers Actif 125 / 144 40% 1 04.03.2027 -
Pelle Mattsson Norwich City Actif 128 / 135 40% 2 03.03.2027 -
Toby Collyer West Bromwich Albion Actif 137 / 116 40% 3 02.03.2027 -
Ilir Krasniqi Polissia Actif 121 / 128 40% 2 16.02.2027 -
Johnly Yfeko Exeter City Actif 111 / 103 40% 1 16.02.2027 -
Habib Diarra Sunderland Actif 141 / 141 40% 1 16.02.2027 -
Ki-Jana Hoever Sparta Prague Actif 126 / 128 40% 1 13.02.2027 -
Dara O'Shea Ipswich Town Actif 136 / 137 40% 2 12.02.2027 -
Edoardo Bove Watford Actif 136 / 149 40% 1 11.02.2027 -
Lewis Gibson Preston Actif 121 / 138 40% 1 10.02.2027 -
Alfie Doughty Millwall Actif 126 / 140 40% 1 08.02.2027 -
Japhet Tanganga Sheffield United Actif 132 / 125 40% 1 07.02.2027 -
Danilo Mitrović Dinamo Makhachkala Actif 110 / 122 40% 2 04.02.2027 -
Max Bird Birmingham Actif 136 / 116 40% 3 01.02.2027 -
Florentino Luís Ipswich Town Actif 139 / 135 40% 1 28.01.2027 -
José Martínes CSKA 1948 Actif 113 / 119 40% 2 25.01.2027 -
Yousef Salech Cardiff City Actif 119 / 116 40% 1 25.01.2027 -
Vukašin Bogdanović Radnik Surdulica Actif 107 / 96 40% 1 25.01.2027 -
Lewis Bate Stockport County Actif 115 / 122 40% 1 11.01.2027 -
Alex Robertson Cardiff City Actif 118 / 136 40% 2 29.12.2026 -
Koki Saito Queens Park Rangers Actif 126 / 133 40% 1 29.12.2026 -
Vivaldo Semedo Watford Actif 121 / 122 40% 1 28.12.2026 -
Petar Stanić Ludogorets Actif 135 / 143 40% 3 26.12.2026 -
Sayfallah Ltaief Cracovia Actif 129 / 117 40% 3 24.12.2026 Observer
Mathias Jørgensen Blackburn Rovers Actif 112 / 132 40% 1 24.12.2026 -
Sergio Lozano Jagiellonia Actif 119 / 110 40% 1 23.12.2026 -
Kwame Poku Queens Park Rangers Actif 122 / 127 40% 1 23.12.2026 -
Ruben van Bommel Ferencvaros Actif 135 / 142 40% 1 22.12.2026 -
Álvaro Rodríguez Bournemouth Actif 127 / 118 40% 1 22.12.2026 -
Everton Bala Levski Actif 123 / 129 40% 1 20.12.2026 -
Stefan Tomović Spartak Subotica Actif 108 / 113 40% 2 18.12.2026 -
Suleiman Camara Slovan Bratislava Actif 118 / 123 40% 6 17.12.2026 -
Serhiy Buletsa Oleksandriya Actif 113 / 94 40% 2 17.12.2026 -
Marcelo Allende Mamelodi Sundowns Actif 128 / 122 40% 5 16.12.2026 -
Josué Tiendrébéogo IMT Actif 109 / 106 40% 1 14.12.2026 -
Ammar Ramadan DAC Dunajska Streda Actif 131 / 134 40% 1 14.12.2026 -
Mauro Rodrigues Botev Plovdiv Actif 117 / 100 40% 1 14.12.2026 -
Hazeem Bakre Crawley Town Actif 89 / 91 40% 1 13.12.2026 -
Dilan Godoy Vélez Actif 108 / 114 40% 2 11.12.2026 -
Miloš Jovičić Zabbar St. Patrick Actif 93 / 114 40% 2 11.12.2026 -
Ezekiel Kwame Alladoh Philadelphia Union Actif 111 / 103 40% 2 11.12.2026 -
Đorđe Jovanović Radnik Surdulica Actif 115 / 122 40% 2 10.12.2026 -
Baba N'Diaye Chelyabinsk Actif 82 / 101 40% 1 09.12.2026 -
Krisztofer Horváth Ujpest Actif 109 / 121 40% 1 07.12.2026 -
Tomás O'Connor Gimnasia y Esgrima Actif 125 / 110 40% 2 06.12.2026 -
Ola Brynhildsen Bodo/Glimt Actif 128 / 142 40% 1 30.11.2026 -
Patrik Wålemark Lech Actif 128 / 131 40% 1 28.11.2026 -
Mateus Mané Manchester United Actif 129 / 127 40% 1 26.11.2026 -
Sebastián Medina Tigre Actif 109 / 104 40% 2 24.11.2026 -
Nikolay Zlatev Cherno More Actif 96 / 112 40% 1 23.11.2026 -
Ognjen Bondžulić Mladost Lucani Actif 100 / 109 40% 1 23.11.2026 -
Ştefan Baiaram Universitatea Craiova Actif 119 / 113 40% 1 21.11.2026 -
Siyanda Ndlovu Bloemfontein Celtic Actif 119 / 122 40% 1 21.11.2026 -
Michele Šego Hajduk Split Actif 119 / 113 40% 1 20.11.2026 -
Bongani Modiba Black Aces Actif 121 / 141 40% 2 19.11.2026 -
Tomás González Piast Actif 114 / 110 40% 1 18.11.2026 -
Žiga Repas NK Maribor Actif 115 / 107 40% 2 17.11.2026 -
Bénie Traoré New York City Actif 117 / 122 40% 1 17.11.2026 -
Adrián Sánchez Belgrano Actif 124 / 106 40% 1 17.11.2026 -
Iván Angulo Orlando City Actif 136 / 144 40% 1 15.11.2026 -
Angelo Gattermayer Wolfsberger AC Actif 128 / 138 40% 1 14.11.2026 -
Oswin Appollis Orlando Pirates Actif 114 / 112 40% 1 14.11.2026 Plus d'infos
Mduduzi Shabalala Kaizer Chiefs Actif 122 / 121 40% 1 13.11.2026 -
Alexander Díaz Deportivo Riestra Actif 115 / 110 40% 1 12.11.2026 -
Milan Vukotić Partizan Actif 127 / 127 40% 1 10.11.2026 -
Andrei Cordea CFR Cluj Actif 129 / 121 40% 1 09.11.2026 -
David Buchta Radnicki 1923 Perdu 122 / 128 40% 2 06.11.2026 -
Kelvin Yeboah Minnesota United FC Actif 124 / 132 40% 1 08.10.2026 -
Martín Ojeda Orlando City Actif 135 / 146 40% 1 08.10.2026 -
Conrad Wallem Austria Wien Actif 127 / 125 40% 2 06.10.2026 -
Bryan Ramírez FC Cincinnati Actif 127 / 119 40% 1 06.10.2026 -
Juan Giménez Celta Actif 107 / 141 40% 1 31.08.2026 -
Vanja Dragojević Partizan Actif 117 / 110 40% 1 31.08.2026 -